createdAt,value
2019-03-20T00:01:44.137Z,49.2
2019-03-20T00:16:51.438Z,48.9
2019-03-20T00:32:04.091Z,50
2019-03-20T00:47:15.363Z,50.2
2019-03-20T01:02:29.338Z,49.2
2019-03-20T01:17:41.886Z,48.6
2019-03-20T01:32:54.441Z,50.3
2019-03-20T01:48:00.416Z,49.2
2019-03-20T02:03:19.800Z,49
2019-03-20T02:18:32.418Z,49
2019-03-20T02:33:44.949Z,49.7
2019-03-20T02:48:57.503Z,49.2
2019-03-20T03:04:10.372Z,50.7
2019-03-20T03:19:22.205Z,51.9
2019-03-20T03:34:34.341Z,52.9
2019-03-20T03:49:46.473Z,52.9
2019-03-20T04:04:55.859Z,53.5
2019-03-20T04:20:10.562Z,53.5
2019-03-20T04:35:22.620Z,53.4
2019-03-20T04:50:34.748Z,53.8
2019-03-20T05:05:38.534Z,54.9
2019-03-20T05:20:58.351Z,55.2
2019-03-20T05:36:10.297Z,54.8
2019-03-20T05:51:22.289Z,53.6
2019-03-20T06:06:34.059Z,56
2019-03-20T06:21:46.724Z,56.6
2019-03-20T06:36:58.102Z,55.5
2019-03-20T06:52:10.341Z,43.4
2019-03-20T07:07:15.640Z,39.6
2019-03-20T07:22:35.993Z,36
2019-03-20T07:37:56.511Z,33.2
2019-03-20T07:53:00.713Z,32
2019-03-20T08:08:13.689Z,32.1
2019-03-20T08:23:26.916Z,32
2019-03-20T08:38:40.340Z,31.2
2019-03-20T08:53:56.433Z,32
2019-03-20T09:09:07.574Z,27.1
2019-03-20T09:24:21.383Z,25
2019-03-20T09:39:35.341Z,23.4
2019-03-20T09:54:49.427Z,24.1
2019-03-20T10:10:01.356Z,24.1
2019-03-20T10:25:17.997Z,23.7
2019-03-20T10:40:32.495Z,22.4
2019-03-20T10:55:48.233Z,20
2019-03-20T11:10:53.355Z,20.2
2019-03-20T11:26:17.353Z,20.2
2019-03-20T11:41:32.669Z,18.5
2019-03-20T11:56:48.344Z,17.1
2019-03-20T12:12:03.837Z,17.6
2019-03-20T12:27:15.996Z,17
2019-03-20T12:42:36.572Z,15.3
2019-03-20T12:57:53.051Z,14
2019-03-20T13:13:10.355Z,13.8
2019-03-20T13:28:12.260Z,13.2
2019-03-20T13:43:42.030Z,14
2019-03-20T13:59:02.964Z,13.6
2019-03-20T14:14:20.348Z,14.1
2019-03-20T14:29:39.842Z,13.2
2019-03-20T14:44:55.333Z,13.8
2019-03-20T15:00:08.636Z,13.8
2019-03-20T15:15:29.397Z,13.6
2019-03-20T15:30:46.195Z,13.3
2019-03-20T15:46:02.861Z,14.2
2019-03-20T16:01:04.416Z,16.4
2019-03-20T16:16:34.220Z,13.8
2019-03-20T16:31:52.995Z,13.8
2019-03-20T16:47:10.860Z,14.8
2019-03-20T17:02:27.041Z,17.1
2019-03-20T17:17:42.423Z,19.2
2019-03-20T17:32:58.763Z,20.9
2019-03-20T17:48:12.168Z,22.4
2019-03-20T18:03:26.724Z,23.9
2019-03-20T18:18:41.084Z,24.6
2019-03-20T18:33:46.567Z,25.3
2019-03-20T18:49:09.540Z,27.1
2019-03-20T19:04:23.505Z,27.7
2019-03-20T19:19:37.445Z,28.3
2019-03-20T19:34:51.205Z,29.3
2019-03-20T19:50:02.430Z,30.2
2019-03-20T20:05:18.280Z,30.9
2019-03-20T20:20:31.754Z,31.6
2019-03-20T20:35:45.204Z,33.6
2019-03-20T20:50:49.716Z,35
2019-03-20T21:06:13.471Z,31.9
2019-03-20T21:21:27.141Z,32.8
2019-03-20T21:36:40.630Z,34.9
2019-03-20T21:51:53.841Z,36.1
2019-03-20T22:07:03.229Z,37
2019-03-20T22:22:20.171Z,38.3
2019-03-20T22:37:33.055Z,39.1
2019-03-20T22:52:45.826Z,40.4
2019-03-20T23:07:48.694Z,41.7
2019-03-20T23:23:11.342Z,41.9
2019-03-20T23:38:24.146Z,42.5
2019-03-20T23:53:36.935Z,42.2
